Time,TemperatureF,DewpointF,PressureIn,WindDirection,WindDirectionDegrees,WindSpeedMPH,WindSpeedGustMPH,Humidity,HourlyPrecipIn,Conditions,Clouds,dailyrainin,SolarRadiationWatts/m^2,SoftwareType,DateUTC
2016-09-29 00:13:00,46.7,27.0,29.91,East,99,14.0,21.0,46,0.00,,,0.00,0,weatherlink.com 1.10,2016-09-29 06:13:00,
2016-09-29 00:28:00,46.4,27.0,29.92,East,95,11.0,16.0,47,0.00,,,0.00,0,weatherlink.com 1.10,2016-09-29 06:28:00,
2016-09-29 00:43:00,46.6,27.0,29.92,SE,124,8.0,15.0,46,0.00,,,0.00,0,weatherlink.com 1.10,2016-09-29 06:43:00,
2016-09-29 01:13:00,46.0,27.0,29.92,SSE,152,9.0,14.0,47,0.00,,,0.00,0,weatherlink.com 1.10,2016-09-29 07:13:00,
2016-09-29 01:28:00,45.7,27.0,29.92,ESE,108,8.0,12.0,48,0.00,,,0.00,0,weatherlink.com 1.10,2016-09-29 07:28:00,
2016-09-29 01:43:00,45.5,27.0,29.92,SE,126,8.0,11.0,49,0.00,,,0.00,0,weatherlink.com 1.10,2016-09-29 07:43:00,
2016-09-29 01:58:00,45.7,27.0,29.92,SE,128,7.0,12.0,49,0.00,,,0.00,0,weatherlink.com 1.10,2016-09-29 07:58:00,
2016-09-29 02:13:00,45.8,27.0,29.92,ESE,103,9.0,11.0,49,0.00,,,0.00,0,weatherlink.com 1.10,2016-09-29 08:13:00,
2016-09-29 02:28:00,45.0,27.0,29.92,SSE,159,1.0,3.0,49,0.00,,,0.00,0,weatherlink.com 1.10,2016-09-29 08:28:00,
2016-09-29 02:43:00,44.7,27.0,29.92,SSE,159,0.0,3.0,50,0.00,,,0.00,0,weatherlink.com 1.10,2016-09-29 08:43:00,
2016-09-29 02:58:00,44.7,27.0,29.92,SSE,159,2.0,5.0,50,0.00,,,0.00,0,weatherlink.com 1.10,2016-09-29 08:58:00,
2016-09-29 03:14:00,43.8,27.0,29.92,SSE,159,2.0,5.0,51,0.00,,,0.00,0,weatherlink.com 1.10,2016-09-29 09:14:00,
2016-09-29 03:28:00,44.2,26.0,29.91,SSE,159,1.0,4.0,50,0.00,,,0.00,0,weatherlink.com 1.10,2016-09-29 09:28:00,
2016-09-29 03:59:00,45.4,26.0,29.91,SSE,159,0.0,1.0,46,0.00,,,0.00,0,weatherlink.com 1.10,2016-09-29 09:59:00,
2016-09-29 04:14:00,44.9,26.0,29.91,SSE,159,0.0,0.0,47,0.00,,,0.00,0,weatherlink.com 1.10,2016-09-29 10:14:00,
2016-09-29 04:29:00,44.3,26.0,29.91,SSE,159,0.0,0.0,49,0.00,,,0.00,0,weatherlink.com 1.10,2016-09-29 10:29:00,
2016-09-29 04:44:00,42.6,25.0,29.91,SSE,159,0.0,0.0,51,0.00,,,0.00,0,weatherlink.com 1.10,2016-09-29 10:44:00,
2016-09-29 04:59:00,41.7,26.0,29.91,SSE,159,0.0,0.0,53,0.00,,,0.00,0,weatherlink.com 1.10,2016-09-29 10:59:00,
2016-09-29 05:14:00,41.2,26.0,29.91,SSE,159,0.0,0.0,54,0.00,,,0.00,0,weatherlink.com 1.10,2016-09-29 11:14:00,
2016-09-29 05:29:00,41.2,26.0,29.92,SSE,159,0.0,2.0,55,0.00,,,0.00,0,weatherlink.com 1.10,2016-09-29 11:29:00,
2016-09-29 05:44:00,42.7,26.0,29.91,SSE,160,0.0,2.0,52,0.00,,,0.00,0,weatherlink.com 1.10,2016-09-29 11:44:00,
2016-09-29 05:59:00,42.8,25.0,29.91,SSE,160,0.0,1.0,50,0.00,,,0.00,0,weatherlink.com 1.10,2016-09-29 11:59:00,
2016-09-29 06:14:00,43.0,25.0,29.91,SSE,160,0.0,0.0,50,0.00,,,0.00,0,weatherlink.com 1.10,2016-09-29 12:14:00,
2016-09-29 06:29:00,43.4,26.0,29.91,SSE,160,0.0,0.0,50,0.00,,,0.00,0,weatherlink.com 1.10,2016-09-29 12:29:00,
2016-09-29 06:44:00,43.5,26.0,29.91,SSE,160,0.0,0.0,50,0.00,,,0.00,0,weatherlink.com 1.10,2016-09-29 12:44:00,
2016-09-29 06:59:00,40.9,25.0,29.92,SSE,160,0.0,0.0,53,0.00,,,0.00,0,weatherlink.com 1.10,2016-09-29 12:59:00,
2016-09-29 07:14:00,40.2,25.0,29.93,SSE,160,0.0,1.0,55,0.00,,,0.00,14,weatherlink.com 1.10,2016-09-29 13:14:00,
2016-09-29 07:29:00,42.5,27.0,29.93,SSE,160,0.0,0.0,55,0.00,,,0.00,33,weatherlink.com 1.10,2016-09-29 13:29:00,
2016-09-29 07:44:00,44.3,27.0,29.93,SSE,160,0.0,1.0,51,0.00,,,0.00,105,weatherlink.com 1.10,2016-09-29 13:44:00,
2016-09-29 07:59:00,46.8,28.0,29.93,SSE,160,0.0,1.0,48,0.00,,,0.00,151,weatherlink.com 1.10,2016-09-29 13:59:00,
2016-09-29 08:14:00,48.8,29.0,29.93,SSE,160,0.0,0.0,46,0.00,,,0.00,218,weatherlink.com 1.10,2016-09-29 14:14:00,